Aubrey, TX (76227)

3:23 AM CDT on June 30, 2015 (GMT -0500)
Nipe Ranch | | Change Station
CLOSE
Current Station
Personal Weather Station
Location: Krugerville, TX
Elevation: 666 ft
Nearby Weather Stations

Elev 666 ft 33.27 °N, 96.99 °W | Updated 6 seconds ago

Mostly Cloudy
Mostly Cloudy
73.3 °F
Feels Like 75 °F
N
6.0
Wind Variable Wind from East
Gusts 15.0 mph

Today
High -- | Low -- °F
--% Chance of Precip.
Yesterday
High -- | Low -- °F
Precip. -- in
6:21 AM 8:41 PM
Waxing Gibbous, 96% visible
Pressure 29.98 in
Visibility 10.0 miles
Clouds Few 3600 ft
Mostly Cloudy 6000 ft
Mostly Cloudy 7500 ft
Heat Index 75 °F
Dew Point 63 °F
Humidity 71%
Rainfall 0.00 in
Snow Depth Not available.
UV 0 out of 12
Pollen 4.50 out of 12
Air Quality Not available.
Flu Activity Local Activity
METAR KDTO 300753Z AUTO 09014G31KT 10SM FEW036 BKN060 BKN075 24/17 A3001 RMK AO2 PK WND 11032/0743 LTG DSNT E AND SE SLP152 T02440167

More Conditions Fewer Conditions

Pressure 29.98 in
Visibility 10.0 miles
Clouds Few 3600 ft
Mostly Cloudy 6000 ft
Mostly Cloudy 7500 ft
Heat Index 75 °F
Dew Point 63 °F
Humidity 71%
Rainfall 0.00 in
Snow Depth Not available.
UV 0 out of 12
Pollen 4.50 out of 12
Air Quality Not available.
Flu Activity Local Activity
METAR KDTO 300753Z AUTO 09014G31KT 10SM FEW036 BKN060 BKN075 24/17 A3001 RMK AO2 PK WND 11032/0743 LTG DSNT E AND SE SLP152 T02440167

More Conditions Fewer Conditions

10-Day Weather Forecast

Almanac

Astronomy

Jun. 30, 2015 Rise Set
Actual Time
Civil Twilight
Nautical Twilight
Astronomical Twilight
Moon
Length of Visible Light
Length of Day
Tomorrow will be .
, % of the Moon is Illuminated

Today's Extremes

State Highs State Lows

Community

WunderPhotos

Upload Photos

1,833,976 photos uploaded!

WunderBlogs® & News

Nearby

Air Quality

  Air Quality AQ Index Pollutant
Not available.

Snow Depth

Station Depth Elevation

Earthquake Activity

City Distance Mag. Time & Date
Minimum magnitude displayed is 2.5.

Coastal Water Temperatures

Place Temperature

Stations

Nearby Weather Stations

Station Location Temp. Windchill Dew Point Humidity Wind Precip. Elev Updated Type